createdAt,value
2023-01-21T00:00:45.769Z,50.30
2023-01-21T00:03:13.128Z,53.60
2023-01-21T00:05:40.103Z,57.20
2023-01-21T00:08:07.107Z,51.90
2023-01-21T00:10:34.100Z,44.70
2023-01-21T00:13:00.888Z,49.50
2023-01-21T00:15:27.865Z,51.30
2023-01-21T00:17:54.879Z,55.60
2023-01-21T00:20:21.873Z,54.80
2023-01-21T00:22:48.708Z,52.30
2023-01-21T00:25:15.546Z,52.60
2023-01-21T00:27:42.425Z,58.20
2023-01-21T00:30:10.844Z,56.90
2023-01-21T00:32:37.693Z,60.00
2023-01-21T00:35:06.438Z,49.00
2023-01-21T00:37:33.369Z,51.40
2023-01-21T00:40:00.177Z,56.00
2023-01-21T00:42:28.126Z,59.60
2023-01-21T00:44:58.467Z,54.70
2023-01-21T00:47:25.281Z,55.00
2023-01-21T00:49:52.220Z,56.20
2023-01-21T00:52:19.135Z,49.70
2023-01-21T00:54:46.127Z,54.00
2023-01-21T00:57:13.964Z,54.70
2023-01-21T00:59:41.041Z,59.20
2023-01-21T01:02:09.096Z,57.50
2023-01-21T01:04:36.138Z,53.50
2023-01-21T01:07:03.194Z,53.50
2023-01-21T01:09:30.023Z,54.60
2023-01-21T01:11:57.094Z,61.90
2023-01-21T01:14:23.892Z,59.80
2023-01-21T01:16:50.719Z,54.40
2023-01-21T01:19:17.820Z,57.10
2023-01-21T01:21:44.699Z,54.60
2023-01-21T01:24:11.603Z,53.90
2023-01-21T01:26:39.946Z,56.10
2023-01-21T01:29:10.308Z,55.80
2023-01-21T01:31:37.144Z,52.20
2023-01-21T01:34:04.058Z,56.40
2023-01-21T01:36:30.979Z,61.00
2023-01-21T01:38:59.176Z,51.60
2023-01-21T01:41:28.639Z,53.70
2023-01-21T01:43:59.912Z,50.20
2023-01-21T01:46:28.982Z,51.80
2023-01-21T01:49:01.302Z,56.10
2023-01-21T01:51:37.141Z,57.70
2023-01-21T01:54:06.187Z,52.90
2023-01-21T01:56:32.972Z,52.90
2023-01-21T01:58:59.752Z,49.80
2023-01-21T02:01:26.724Z,50.20
2023-01-21T02:03:59.629Z,55.60
2023-01-21T02:06:26.950Z,55.50
2023-01-21T02:08:54.537Z,51.80
2023-01-21T02:11:21.449Z,54.10
2023-01-21T02:13:51.730Z,53.50
2023-01-21T02:16:32.443Z,52.10
2023-01-21T02:19:17.329Z,51.90
2023-01-21T02:21:47.254Z,54.40
2023-01-21T02:24:58.609Z,54.80
2023-01-21T02:28:18.185Z,48.80
2023-01-21T02:31:06.549Z,54.00
2023-01-21T02:33:52.456Z,54.20
2023-01-21T02:36:44.038Z,47.80
2023-01-21T02:39:50.623Z,50.40
2023-01-21T02:42:40.990Z,47.40
2023-01-21T02:45:41.239Z,52.30
2023-01-21T02:48:12.275Z,50.60
2023-01-21T02:50:44.722Z,54.10
2023-01-21T02:56:18.889Z,45.50
2023-01-21T02:58:49.778Z,58.20
2023-01-21T03:01:45.045Z,57.00
2023-01-21T03:04:30.380Z,50.80
2023-01-21T03:07:16.323Z,48.90
2023-01-21T03:09:45.025Z,53.70
2023-01-21T03:12:30.473Z,50.60
2023-01-21T03:15:20.146Z,52.50
2023-01-21T03:17:51.501Z,49.90
2023-01-21T03:20:31.319Z,47.60
2023-01-21T03:23:01.588Z,51.70
2023-01-21T15:14:34.572Z,24.40
2023-01-21T15:17:01.503Z,23.80
2023-01-21T15:19:33.428Z,19.20
2023-01-21T15:22:01.786Z,20.10
2023-01-21T15:24:33.292Z,18.10
2023-01-21T15:27:15.543Z,22.20
2023-01-21T15:29:43.460Z,18.20
2023-01-21T15:32:35.795Z,18.40
2023-01-21T15:35:25.717Z,16.50
2023-01-21T15:37:59.368Z,20.30
2023-01-21T15:40:28.359Z,18.00
2023-01-21T15:43:01.143Z,19.30
2023-01-21T15:45:47.039Z,13.20
2023-01-21T15:48:42.734Z,16.90
2023-01-21T15:51:15.802Z,22.40
2023-01-21T15:54:07.592Z,24.10
2023-01-21T15:57:12.922Z,20.00
2023-01-21T16:00:47.217Z,18.10
2023-01-21T16:03:34.364Z,21.70
2023-01-21T16:06:36.614Z,24.90
2023-01-21T16:13:53.324Z,26.70
2023-01-21T16:16:28.050Z,28.40
2023-01-21T16:18:59.661Z,29.40
2023-01-21T16:21:32.711Z,29.30
2023-01-21T16:24:00.845Z,28.70
2023-01-21T16:26:31.912Z,29.90
2023-01-21T16:29:02.299Z,29.60
2023-01-21T16:31:29.335Z,28.10
2023-01-21T16:33:56.622Z,27.90
2023-01-21T16:36:23.527Z,31.00
2023-01-21T16:38:50.761Z,28.90
2023-01-21T16:41:19.991Z,25.50
2023-01-21T16:43:53.242Z,32.20
2023-01-21T16:46:34.811Z,32.10
2023-01-21T16:49:04.976Z,32.10
2023-01-21T16:51:36.099Z,28.10
2023-01-21T16:54:25.350Z,28.80
2023-01-21T16:57:00.275Z,26.30
2023-01-21T16:59:34.223Z,29.10
2023-01-21T17:02:01.132Z,27.10
2023-01-21T17:04:28.469Z,30.90
2023-01-21T17:06:55.308Z,28.10
2023-01-21T17:09:30.516Z,25.40
2023-01-21T17:11:57.482Z,28.60
2023-01-21T17:14:26.997Z,32.50
2023-01-21T17:16:54.719Z,28.00
2023-01-21T17:19:31.674Z,24.10
2023-01-21T17:22:00.530Z,26.00
2023-01-21T17:24:38.525Z,24.80
2023-01-21T17:27:18.686Z,25.00
2023-01-21T17:29:45.566Z,26.60
2023-01-21T17:32:27.348Z,25.30
2023-01-21T17:35:10.657Z,27.10
2023-01-21T17:37:44.084Z,27.60
2023-01-21T17:40:24.921Z,26.80
2023-01-21T17:42:51.963Z,28.10
2023-01-21T17:45:33.050Z,26.30
2023-01-21T17:48:11.025Z,26.10
2023-01-21T17:50:38.961Z,28.40
2023-01-21T17:53:07.486Z,23.70
2023-01-21T17:55:36.091Z,31.30
2023-01-21T17:58:05.771Z,25.30
2023-01-21T18:00:36.183Z,25.20
2023-01-21T18:03:03.253Z,27.20
2023-01-21T18:05:30.514Z,32.60
2023-01-21T18:07:57.651Z,26.80
2023-01-21T18:10:27.174Z,28.70
2023-01-21T18:13:00.041Z,26.30
2023-01-21T18:15:27.242Z,28.40
2023-01-21T18:17:56.218Z,28.30
2023-01-21T18:20:25.069Z,28.50
2023-01-21T18:22:53.045Z,28.10
2023-01-21T18:25:20.524Z,29.70
2023-01-21T18:27:51.957Z,25.80
2023-01-21T18:30:20.328Z,28.50
2023-01-21T18:32:47.359Z,26.50
2023-01-21T18:35:15.514Z,28.40
2023-01-21T18:37:42.909Z,28.40
2023-01-21T18:40:15.848Z,26.90
2023-01-21T18:42:42.768Z,25.70
2023-01-21T18:45:20.454Z,26.90
2023-01-21T18:47:48.303Z,27.90
2023-01-21T18:50:20.790Z,24.80
2023-01-21T18:52:48.142Z,26.30
2023-01-21T18:55:16.073Z,26.50
2023-01-21T18:57:43.992Z,23.20
2023-01-21T19:00:24.594Z,28.00
2023-01-21T19:02:55.988Z,23.20
2023-01-21T19:05:28.065Z,28.60
2023-01-21T19:07:55.503Z,26.50
2023-01-21T19:10:22.463Z,26.80
2023-01-21T19:12:49.535Z,27.60
2023-01-21T19:15:18.500Z,26.00
2023-01-21T19:17:45.447Z,24.70
2023-01-21T19:20:17.562Z,25.00
2023-01-21T19:22:45.567Z,29.50
2023-01-21T19:25:12.630Z,24.80
2023-01-21T19:27:42.231Z,27.30
2023-01-21T19:30:19.348Z,21.60
2023-01-21T19:32:46.967Z,26.10
2023-01-21T19:35:18.249Z,25.70
2023-01-21T19:37:45.780Z,22.00
2023-01-21T19:40:17.509Z,24.90
2023-01-21T19:42:44.999Z,26.20
2023-01-21T19:45:12.299Z,23.60
2023-01-21T19:47:41.870Z,23.90
2023-01-21T19:50:17.993Z,25.00
2023-01-21T19:52:45.783Z,19.50
2023-01-21T19:55:17.427Z,22.50
2023-01-21T19:57:45.816Z,26.50
2023-01-21T20:00:26.983Z,21.80
2023-01-21T20:02:54.454Z,23.30
2023-01-21T20:05:21.710Z,24.60
2023-01-21T20:07:49.541Z,27.70
2023-01-21T20:10:17.523Z,24.40
2023-01-21T20:12:44.783Z,23.90
2023-01-21T20:15:16.494Z,27.00
2023-01-21T20:17:47.995Z,28.50
2023-01-21T20:20:25.584Z,27.50
2023-01-21T20:22:52.565Z,24.00
2023-01-21T20:25:21.836Z,31.40
2023-01-21T20:27:53.627Z,28.40
2023-01-21T20:30:22.349Z,29.70
2023-01-21T20:32:49.854Z,28.80
2023-01-21T20:35:17.408Z,27.20
2023-01-21T20:37:51.880Z,27.40
2023-01-21T20:40:23.377Z,29.90
2023-01-21T20:42:50.659Z,25.20
2023-01-21T20:45:18.486Z,24.40
2023-01-21T20:47:50.017Z,28.70
2023-01-21T20:50:35.399Z,24.40
2023-01-21T20:53:03.692Z,30.30
2023-01-21T20:55:31.124Z,26.80
2023-01-21T20:57:57.998Z,28.40
2023-01-21T21:00:27.190Z,25.00
2023-01-21T21:02:57.733Z,29.00
2023-01-21T21:05:25.791Z,32.00
2023-01-21T21:07:53.048Z,29.30
2023-01-21T21:10:21.280Z,28.30
2023-01-21T21:12:48.758Z,29.20
2023-01-21T21:15:16.320Z,28.60
2023-01-21T21:17:43.887Z,32.40
2023-01-21T21:20:18.092Z,28.00
2023-01-21T21:22:45.472Z,25.40
2023-01-21T21:25:17.264Z,30.50
2023-01-21T21:27:44.760Z,31.20
2023-01-21T21:30:16.797Z,29.70
2023-01-21T21:32:43.659Z,28.40
2023-01-21T21:35:24.560Z,29.00
2023-01-21T21:37:51.765Z,34.10
2023-01-21T21:40:23.064Z,34.80
2023-01-21T21:43:08.811Z,34.10
2023-01-21T21:45:36.537Z,30.50
2023-01-21T21:48:22.831Z,30.90
2023-01-21T21:50:58.805Z,35.90
2023-01-21T21:53:25.809Z,34.90
2023-01-21T21:55:52.773Z,35.80
2023-01-21T21:58:19.602Z,34.20
2023-01-21T22:00:46.675Z,36.60
2023-01-21T22:03:13.603Z,35.40
2023-01-21T22:05:40.403Z,40.00
2023-01-21T22:08:08.616Z,34.50
2023-01-21T22:10:35.404Z,37.90
2023-01-21T22:13:02.443Z,40.10
2023-01-21T22:15:29.358Z,37.80
2023-01-21T22:17:56.152Z,40.70
2023-01-21T22:20:22.969Z,41.50
2023-01-21T22:22:49.739Z,35.40
2023-01-21T22:25:16.848Z,39.70
2023-01-21T22:27:45.000Z,41.30
2023-01-21T22:30:12.728Z,40.30
2023-01-21T22:32:39.468Z,39.60
2023-01-21T22:35:06.959Z,41.00
2023-01-21T22:37:33.670Z,43.20
2023-01-21T22:40:00.474Z,41.10
2023-01-21T22:42:27.374Z,40.40
2023-01-21T22:44:54.224Z,41.60
2023-01-21T22:47:20.951Z,37.00
2023-01-21T22:49:49.397Z,41.70
2023-01-21T22:52:16.200Z,41.60
2023-01-21T22:54:43.181Z,41.40
2023-01-21T22:57:09.992Z,44.10
2023-01-21T22:59:37.113Z,37.10
2023-01-21T23:02:03.901Z,40.00
2023-01-21T23:04:30.677Z,43.20
2023-01-21T23:06:57.760Z,43.90
2023-01-21T23:09:24.691Z,42.80
2023-01-21T23:11:52.820Z,43.30
2023-01-21T23:14:19.796Z,46.60
2023-01-21T23:16:46.752Z,48.20
2023-01-21T23:19:13.705Z,49.00
2023-01-21T23:21:40.637Z,45.50
2023-01-21T23:24:07.723Z,45.10
2023-01-21T23:26:34.541Z,45.70
2023-01-21T23:29:01.337Z,47.70
2023-01-21T23:31:28.219Z,51.60
2023-01-21T23:33:56.317Z,52.20
2023-01-21T23:36:23.285Z,51.10
2023-01-21T23:38:50.075Z,57.00
2023-01-21T23:41:17.160Z,53.90
2023-01-21T23:43:44.072Z,53.50
2023-01-21T23:46:13.010Z,51.50
2023-01-21T23:48:39.832Z,48.20
2023-01-21T23:51:08.260Z,49.20
2023-01-21T23:53:35.084Z,52.50
2023-01-21T23:56:14.274Z,56.00
2023-01-21T23:58:41.331Z,52.60
